Time;durP1;ratioP1;P1;durP2;ratioP2;P2;SDS_P1;SDS_P2;PMS_P1;PMS_P2;Temp;Humidity;BMP_temperature;BMP_pressure;BME280_temperature;BME280_humidity;BME280_pressure;Samples;Min_cycle;Max_cycle;Signal;HPM_P1;HPM_P2
2023/09/09 00:01:57;;;;;;;;;;;;;;;;;;4999477;28;19913;-69
2023/09/09 00:04:23;;;;;;;;;;;;;;;;;;4995692;28;19916;-70
2023/09/09 00:06:49;;;;;;;;;;;;;;;;;;4997187;28;19912;-69
2023/09/09 00:09:15;;;;;;;;;;;;;;;;;;4996989;28;20005;-70
2023/09/09 00:11:41;;;;;;;;;;;;;;;;;;4996906;28;20401;-70
2023/09/09 00:14:07;;;;;;;;;;;;;;;;;;4998959;28;19985;-70
2023/09/09 00:16:34;;;;;;;;;;;;;;;;;;4996999;28;19913;-69
2023/09/09 00:19:00;;;;;;;;;;;;;;;;;;4996535;28;19905;-69
2023/09/09 00:21:26;;;;;;;;;;;;;;;;;;4996737;28;19912;-70
2023/09/09 00:23:51;;;;;;;;;;;;;;;;;;4997236;28;19949;-70
2023/09/09 00:26:17;;;;;;;;;;;;;;;;;;4997753;28;19914;-70
2023/09/09 00:28:43;;;;;;;;;;;;;;;;;;4996384;28;19913;-70
2023/09/09 00:31:09;;;;;;;;;;;;;;;;;;4996462;28;20285;-70
2023/09/09 00:33:35;;;;;;;;;;;;;;;;;;4996375;28;19905;-71
2023/09/09 00:36:04;;;;;;;;;;;;;;;;;;4998551;28;20361;-70
2023/09/09 00:38:30;;;;;;;;;;;;;;;;;;4996202;28;19912;-70
2023/09/09 00:40:56;;;;;;;;;;;;;;;;;;4996233;28;19910;-69
2023/09/09 00:43:21;;;;;;;;;;;;;;;;;;4996217;28;20264;-72
2023/09/09 00:45:47;;;;;;;;;;;;;;;;;;4996255;28;19960;-70
2023/09/09 00:48:13;;;;;;;;;;;;;;;;;;4998125;28;19921;-70
2023/09/09 00:50:39;;;;;;;;;;;;;;;;;;4996282;28;19968;-70
2023/09/09 00:53:05;;;;;;;;;;;;;;;;;;4995710;28;20361;-70
2023/09/09 00:55:38;;;;;;;;;;;;;;;;;;5006040;28;19905;-70
2023/09/09 00:58:04;;;;;;;;;;;;;;;;;;4999531;28;19913;-71
2023/09/09 01:00:30;;;;;;;;;;;;;;;;;;4996164;28;19906;-72
2023/09/09 01:02:56;;;;;;;;;;;;;;;;;;4994564;28;19906;-69
2023/09/09 01:05:23;;;;;;;;;;;;;;;;;;4996177;28;19906;-70
2023/09/09 01:07:49;;;;;;;;;;;;;;;;;;4995753;28;20420;-70
2023/09/09 01:10:15;;;;;;;;;;;;;;;;;;4998107;28;19982;-71
2023/09/09 01:12:42;;;;;;;;;;;;;;;;;;4995954;28;20032;-71
2023/09/09 01:15:08;;;;;;;;;;;;;;;;;;4995333;28;20488;-69
2023/09/09 01:17:34;;;;;;;;;;;;;;;;;;4995776;28;20004;-68
2023/09/09 01:20:00;;;;;;;;;;;;;;;;;;4997953;28;20299;-68
2023/09/09 01:22:26;;;;;;;;;;;;;;;;;;4995554;28;19906;-68
2023/09/09 01:24:52;;;;;;;;;;;;;;;;;;4995323;28;19906;-68
2023/09/09 01:27:17;;;;;;;;;;;;;;;;;;4995298;28;19918;-68
2023/09/09 01:29:43;;;;;;;;;;;;;;;;;;4995496;28;19913;-69
2023/09/09 01:32:09;;;;;;;;;;;;;;;;;;4997658;28;19917;-68
2023/09/09 01:34:35;;;;;;;;;;;;;;;;;;4995149;28;19976;-68
2023/09/09 01:37:01;;;;;;;;;;;;;;;;;;4997474;28;19906;-68
2023/09/09 01:39:27;;;;;;;;;;;;;;;;;;4999095;28;19913;-70
2023/09/09 01:41:53;;;;;;;;;;;;;;;;;;4999870;28;19910;-70
2023/09/09 01:44:19;;;;;;;;;;;;;;;;;;4996776;28;19906;-71
2023/09/09 01:46:45;;;;;;;;;;;;;;;;;;4995385;28;19905;-70
2023/09/09 01:49:10;;;;;;;;;;;;;;;;;;4994901;28;19920;-70
2023/09/09 01:51:36;;;;;;;;;;;;;;;;;;4994957;28;20384;-68
2023/09/09 01:54:02;;;;;;;;;;;;;;;;;;4997294;28;20000;-69
2023/09/09 01:56:28;;;;;;;;;;;;;;;;;;5007640;28;19952;-70
2023/09/09 01:58:54;;;;;;;;;;;;;;;;;;4994948;28;20399;-69
2023/09/09 02:01:20;;;;;;;;;;;;;;;;;;4994947;28;19912;-69
2023/09/09 02:03:47;;;;;;;;;;;;;;;;;;4994878;28;19984;-70
2023/09/09 02:06:13;;;;;;;;;;;;;;;;;;4997082;28;19909;-70
2023/09/09 02:08:39;;;;;;;;;;;;;;;;;;4996036;28;19916;-70
2023/09/09 02:11:05;;;;;;;;;;;;;;;;;;4996073;28;19914;-70
2023/09/09 02:13:31;;;;;;;;;;;;;;;;;;4996079;28;19905;-70
2023/09/09 02:15:56;;;;;;;;;;;;;;;;;;4997112;28;20372;-70
2023/09/09 02:18:22;;;;;;;;;;;;;;;;;;4994791;28;20001;-69
2023/09/09 02:20:48;;;;;;;;;;;;;;;;;;4994701;28;19913;-69
2023/09/09 02:23:14;;;;;;;;;;;;;;;;;;4994417;28;20336;-69
2023/09/09 02:25:40;;;;;;;;;;;;;;;;;;4995007;28;20021;-70
2023/09/09 02:28:06;;;;;;;;;;;;;;;;;;4996728;28;19909;-70
2023/09/09 02:30:32;;;;;;;;;;;;;;;;;;4994729;28;19913;-70
2023/09/09 02:32:58;;;;;;;;;;;;;;;;;;4994852;28;19906;-69
2023/09/09 02:35:24;;;;;;;;;;;;;;;;;;4995250;28;19909;-70
2023/09/09 02:37:49;;;;;;;;;;;;;;;;;;4995310;28;19909;-70
2023/09/09 02:40:15;;;;;;;;;;;;;;;;;;4996567;28;19999;-70
2023/09/09 02:42:41;;;;;;;;;;;;;;;;;;4994840;28;20437;-70
2023/09/09 02:45:08;;;;;;;;;;;;;;;;;;4994572;28;19906;-69
2023/09/09 02:47:34;;;;;;;;;;;;;;;;;;4994391;28;20377;-70
2023/09/09 02:50:00;;;;;;;;;;;;;;;;;;4996897;28;19916;-69
2023/09/09 02:52:26;;;;;;;;;;;;;;;;;;4994827;28;19906;-69
2023/09/09 02:54:52;;;;;;;;;;;;;;;;;;4999471;28;20356;-69
2023/09/09 02:57:18;;;;;;;;;;;;;;;;;;5002205;28;19914;-70
2023/09/09 02:59:44;;;;;;;;;;;;;;;;;;4994728;28;19905;-69
2023/09/09 03:02:10;;;;;;;;;;;;;;;;;;4996971;28;20419;-69
2023/09/09 03:04:36;;;;;;;;;;;;;;;;;;4994455;28;19913;-69
2023/09/09 03:07:02;;;;;;;;;;;;;;;;;;4994636;28;19906;-68
2023/09/09 03:09:29;;;;;;;;;;;;;;;;;;4994278;28;19913;-68
2023/09/09 03:11:56;;;;;;;;;;;;;;;;;;4996116;28;19905;-69
2023/09/09 03:14:22;;;;;;;;;;;;;;;;;;4994390;28;19961;-69
2023/09/09 03:16:48;;;;;;;;;;;;;;;;;;4994419;28;19905;-69
2023/09/09 03:19:14;;;;;;;;;;;;;;;;;;4994240;28;19910;-69
2023/09/09 03:21:40;;;;;;;;;;;;;;;;;;4994445;28;19909;-69
2023/09/09 03:24:06;;;;;;;;;;;;;;;;;;4996269;28;19913;-69
2023/09/09 03:26:32;;;;;;;;;;;;;;;;;;4994911;28;19992;-68
2023/09/09 03:28:58;;;;;;;;;;;;;;;;;;4997790;28;19949;-70
2023/09/09 03:31:24;;;;;;;;;;;;;;;;;;4997772;28;19906;-70
2023/09/09 03:33:50;;;;;;;;;;;;;;;;;;4996521;28;19905;-68
2023/09/09 03:36:16;;;;;;;;;;;;;;;;;;4999618;28;19905;-69
2023/09/09 03:38:42;;;;;;;;;;;;;;;;;;4997690;28;19905;-70
2023/09/09 03:41:08;;;;;;;;;;;;;;;;;;4997665;28;19944;-70
2023/09/09 03:43:34;;;;;;;;;;;;;;;;;;4997431;28;20006;-70
2023/09/09 03:45:59;;;;;;;;;;;;;;;;;;4999926;28;20332;-70
2023/09/09 03:48:25;;;;;;;;;;;;;;;;;;4997238;28;19964;-70
2023/09/09 03:50:51;;;;;;;;;;;;;;;;;;4997553;28;19906;-71
2023/09/09 03:53:17;;;;;;;;;;;;;;;;;;4997235;28;19989;-70
2023/09/09 03:55:43;;;;;;;;;;;;;;;;;;5009197;28;19909;-68
2023/09/09 03:58:09;;;;;;;;;;;;;;;;;;4999133;28;19936;-71
2023/09/09 04:00:35;;;;;;;;;;;;;;;;;;4997314;28;19913;-69
2023/09/09 04:03:01;;;;;;;;;;;;;;;;;;4997134;28;20004;-70
2023/09/09 04:05:27;;;;;;;;;;;;;;;;;;4997438;28;20001;-70
2023/09/09 04:07:53;;;;;;;;;;;;;;;;;;4999159;28;20527;-70
2023/09/09 04:10:19;;;;;;;;;;;;;;;;;;5000918;28;19965;-70
2023/09/09 04:12:44;;;;;;;;;;;;;;;;;;4997911;28;19912;-72
2023/09/09 04:15:10;;;;;;;;;;;;;;;;;;4997666;28;19905;-72
2023/09/09 04:17:38;;;;;;;;;;;;;;;;;;4997440;28;20423;-71
2023/09/09 04:20:04;;;;;;;;;;;;;;;;;;4999842;28;19953;-70
2023/09/09 04:22:30;;;;;;;;;;;;;;;;;;4997473;28;20388;-70
2023/09/09 04:24:56;;;;;;;;;;;;;;;;;;4998539;28;20064;-71
2023/09/09 04:27:22;;;;;;;;;;;;;;;;;;4998123;28;19906;-71
2023/09/09 04:29:48;;;;;;;;;;;;;;;;;;4998183;28;19912;-71
2023/09/09 04:32:14;;;;;;;;;;;;;;;;;;5000484;28;19948;-70
2023/09/09 04:34:39;;;;;;;;;;;;;;;;;;4997328;28;19933;-71
2023/09/09 04:37:05;;;;;;;;;;;;;;;;;;4997320;28;19928;-70
2023/09/09 04:39:31;;;;;;;;;;;;;;;;;;4996631;28;19960;-70
2023/09/09 04:41:57;;;;;;;;;;;;;;;;;;4998894;28;19959;-69
2023/09/09 04:44:23;;;;;;;;;;;;;;;;;;4995046;28;19909;-69
2023/09/09 04:46:49;;;;;;;;;;;;;;;;;;4995293;28;19906;-69
2023/09/09 04:49:17;;;;;;;;;;;;;;;;;;4996859;28;19913;-69
2023/09/09 04:51:42;;;;;;;;;;;;;;;;;;4996743;28;20052;-68
2023/09/09 04:54:08;;;;;;;;;;;;;;;;;;4998585;28;19961;-69
2023/09/09 04:56:34;;;;;;;;;;;;;;;;;;5008817;28;19910;-69
2023/09/09 04:59:00;;;;;;;;;;;;;;;;;;4996090;28;19906;-68
2023/09/09 05:01:26;;;;;;;;;;;;;;;;;;4996336;28;19905;-69
2023/09/09 05:03:52;;;;;;;;;;;;;;;;;;4997143;28;19913;-69
2023/09/09 05:06:18;;;;;;;;;;;;;;;;;;4997613;28;19905;-69
2023/09/09 05:08:44;;;;;;;;;;;;;;;;;;5002326;28;19910;-70
2023/09/09 05:11:10;;;;;;;;;;;;;;;;;;5004964;28;19960;-70
2023/09/09 05:13:36;;;;;;;;;;;;;;;;;;4996055;28;19961;-70
2023/09/09 05:16:02;;;;;;;;;;;;;;;;;;5004207;28;19971;-69
2023/09/09 05:18:28;;;;;;;;;;;;;;;;;;4994661;28;19905;-69
2023/09/09 05:20:54;;;;;;;;;;;;;;;;;;4996153;28;19997;-68
2023/09/09 05:23:20;;;;;;;;;;;;;;;;;;4995607;28;19905;-69
2023/09/09 05:25:47;;;;;;;;;;;;;;;;;;4996076;28;19910;-70
2023/09/09 05:28:13;;;;;;;;;;;;;;;;;;4998524;28;19919;-70
2023/09/09 05:30:40;;;;;;;;;;;;;;;;;;4996065;28;19906;-70
2023/09/09 05:33:06;;;;;;;;;;;;;;;;;;4995690;28;20365;-69
2023/09/09 05:35:31;;;;;;;;;;;;;;;;;;4996023;28;19912;-69
2023/09/09 05:37:57;;;;;;;;;;;;;;;;;;4996805;28;19906;-70
2023/09/09 05:40:23;;;;;;;;;;;;;;;;;;4995890;28;19909;-71
2023/09/09 05:42:49;;;;;;;;;;;;;;;;;;4994435;28;19906;-70
2023/09/09 05:45:15;;;;;;;;;;;;;;;;;;4995535;28;19906;-69
2023/09/09 05:50:07;;;;;;;;;;;;;;;;;;5031111;23;20444;-69
2023/09/09 05:52:33;;;;;;;;;;;;;;;;;;5011824;28;19916;-70
2023/09/09 05:54:59;;;;;;;;;;;;;;;;;;5012159;28;19912;-69
2023/09/09 05:57:25;;;;;;;;;;;;;;;;;;5013743;28;19909;-70
2023/09/09 05:59:51;;;;;;;;;;;;;;;;;;5013892;28;19928;-70
2023/09/09 06:02:17;;;;;;;;;;;;;;;;;;5014482;28;19909;-70
2023/09/09 06:04:43;;;;;;;;;;;;;;;;;;5013195;28;19964;-71
2023/09/09 06:07:09;;;;;;;;;;;;;;;;;;5013564;28;19906;-70
2023/09/09 06:09:35;;;;;;;;;;;;;;;;;;5013385;28;19917;-70
2023/09/09 06:12:01;;;;;;;;;;;;;;;;;;5014906;28;19928;-70
2023/09/09 06:14:26;;;;;;;;;;;;;;;;;;5013675;28;20353;-70
2023/09/09 06:16:52;;;;;;;;;;;;;;;;;;5012000;28;19913;-70
2023/09/09 06:19:18;;;;;;;;;;;;;;;;;;5013146;28;19905;-70
2023/09/09 06:21:44;;;;;;;;;;;;;;;;;;5013635;28;19905;-69
2023/09/09 06:24:12;;;;;;;;;;;;;;;;;;5014254;28;20261;-70
2023/09/09 06:26:38;;;;;;;;;;;;;;;;;;5013322;28;19905;-70
2023/09/09 06:29:04;;;;;;;;;;;;;;;;;;5013658;28;20347;-69
2023/09/09 06:31:30;;;;;;;;;;;;;;;;;;5019105;28;19952;-70
2023/09/09 06:33:56;;;;;;;;;;;;;;;;;;5013840;28;19905;-70
2023/09/09 06:36:22;;;;;;;;;;;;;;;;;;5013416;28;19936;-70
2023/09/09 06:38:48;;;;;;;;;;;;;;;;;;5013132;28;19912;-70
2023/09/09 06:41:15;;;;;;;;;;;;;;;;;;5012763;28;19912;-70
2023/09/09 06:43:42;;;;;;;;;;;;;;;;;;5012944;28;19948;-70
2023/09/09 06:46:08;;;;;;;;;;;;;;;;;;5014266;28;19905;-70
2023/09/09 06:48:34;;;;;;;;;;;;;;;;;;5012817;28;19921;-70
2023/09/09 06:50:59;;;;;;;;;;;;;;;;;;5012716;28;19905;-70
2023/09/09 06:53:25;;;;;;;;;;;;;;;;;;5012640;28;19910;-70
2023/09/09 06:55:51;;;;;;;;;;;;;;;;;;5013098;28;19906;-69
2023/09/09 06:58:17;;;;;;;;;;;;;;;;;;5013672;28;19904;-69
2023/09/09 07:00:43;;;;;;;;;;;;;;;;;;5013619;28;20418;-68
2023/09/09 07:03:09;;;;;;;;;;;;;;;;;;5016338;28;19960;-69
2023/09/09 07:05:35;;;;;;;;;;;;;;;;;;5015311;28;20344;-69
2023/09/09 07:08:01;;;;;;;;;;;;;;;;;;5017622;28;19955;-69
2023/09/09 07:10:27;;;;;;;;;;;;;;;;;;5019886;28;19940;-69
2023/09/09 07:12:53;;;;;;;;;;;;;;;;;;5017570;28;19979;-68
2023/09/09 07:15:19;;;;;;;;;;;;;;;;;;5019716;28;20348;-69
2023/09/09 07:17:46;;;;;;;;;;;;;;;;;;5016431;28;20392;-69
2023/09/09 07:20:12;;;;;;;;;;;;;;;;;;5017804;28;20295;-69
2023/09/09 07:22:38;;;;;;;;;;;;;;;;;;5016511;28;20420;-69
2023/09/09 07:25:04;;;;;;;;;;;;;;;;;;5016168;28;19943;-69
2023/09/09 07:27:30;;;;;;;;;;;;;;;;;;5016311;28;20434;-69
2023/09/09 07:29:56;;;;;;;;;;;;;;;;;;5016964;28;20269;-68
2023/09/09 07:32:22;;;;;;;;;;;;;;;;;;5015388;28;19967;-69
2023/09/09 07:34:47;;;;;;;;;;;;;;;;;;5016032;28;19905;-70
2023/09/09 07:37:13;;;;;;;;;;;;;;;;;;5016202;28;19906;-69
2023/09/09 07:39:39;;;;;;;;;;;;;;;;;;5016043;28;19906;-69
2023/09/09 07:42:05;;;;;;;;;;;;;;;;;;5017435;28;19916;-69
2023/09/09 07:44:31;;;;;;;;;;;;;;;;;;5015515;28;20293;-69
2023/09/09 07:46:58;;;;;;;;;;;;;;;;;;5013768;28;19913;-69
2023/09/09 07:49:24;;;;;;;;;;;;;;;;;;5016444;28;20402;-70
2023/09/09 07:51:49;;;;;;;;;;;;;;;;;;5021769;28;19912;-69
2023/09/09 07:54:15;;;;;;;;;;;;;;;;;;5022950;28;19916;-70
2023/09/09 07:56:45;;;;;;;;;;;;;;;;;;5015922;28;19917;-70
2023/09/09 07:59:11;;;;;;;;;;;;;;;;;;5015491;28;19905;-69
2023/09/09 08:01:37;;;;;;;;;;;;;;;;;;5015800;28;20356;-70
2023/09/09 08:04:03;;;;;;;;;;;;;;;;;;5016744;28;19984;-70
2023/09/09 08:06:28;;;;;;;;;;;;;;;;;;5017304;28;19912;-69
2023/09/09 08:08:54;;;;;;;;;;;;;;;;;;5015513;28;20454;-69
2023/09/09 08:11:20;;;;;;;;;;;;;;;;;;5014003;28;19906;-70
2023/09/09 08:13:46;;;;;;;;;;;;;;;;;;5014375;28;19909;-70
2023/09/09 08:16:12;;;;;;;;;;;;;;;;;;5015741;28;20441;-70
2023/09/09 08:18:38;;;;;;;;;;;;;;;;;;5015539;28;20378;-70
2023/09/09 08:21:04;;;;;;;;;;;;;;;;;;5023787;28;19905;-70
2023/09/09 08:23:30;;;;;;;;;;;;;;;;;;5015163;28;20361;-70
2023/09/09 08:25:56;;;;;;;;;;;;;;;;;;5015733;28;19905;-70
2023/09/09 08:28:22;;;;;;;;;;;;;;;;;;5015526;28;19929;-70
2023/09/09 08:30:48;;;;;;;;;;;;;;;;;;5015328;28;19913;-70
2023/09/09 08:33:14;;;;;;;;;;;;;;;;;;5015360;28;19959;-69
2023/09/09 08:35:40;;;;;;;;;;;;;;;;;;5016547;28;19905;-70
2023/09/09 08:38:06;;;;;;;;;;;;;;;;;;5014096;28;20000;-71
2023/09/09 08:40:34;;;;;;;;;;;;;;;;;;5014448;28;20004;-70
2023/09/09 08:43:00;;;;;;;;;;;;;;;;;;5014149;28;19925;-68
2023/09/09 08:45:26;;;;;;;;;;;;;;;;;;5014968;28;19932;-70
2023/09/09 08:47:52;;;;;;;;;;;;;;;;;;5015207;28;19909;-70
2023/09/09 08:50:17;;;;;;;;;;;;;;;;;;5015705;28;20391;-70
2023/09/09 08:52:43;;;;;;;;;;;;;;;;;;5014919;28;20004;-71
2023/09/09 08:55:10;;;;;;;;;;;;;;;;;;5013187;28;19909;-71
2023/09/09 08:57:36;;;;;;;;;;;;;;;;;;5013528;28;19916;-71
2023/09/09 09:00:03;;;;;;;;;;;;;;;;;;5016370;28;19905;-71
2023/09/09 09:02:29;;;;;;;;;;;;;;;;;;5014888;28;19906;-70
2023/09/09 09:04:55;;;;;;;;;;;;;;;;;;5014035;28;19917;-70
2023/09/09 09:07:21;;;;;;;;;;;;;;;;;;5012824;28;20300;-70
2023/09/09 09:09:47;;;;;;;;;;;;;;;;;;5013543;28;20292;-70
2023/09/09 09:12:13;;;;;;;;;;;;;;;;;;5015152;28;19905;-70
2023/09/09 09:14:39;;;;;;;;;;;;;;;;;;5013879;28;19916;-70
2023/09/09 09:17:05;;;;;;;;;;;;;;;;;;5013910;28;19909;-70
2023/09/09 09:19:31;;;;;;;;;;;;;;;;;;5013921;28;19905;-71
2023/09/09 09:21:57;;;;;;;;;;;;;;;;;;5014354;28;19905;-70
2023/09/09 09:24:23;;;;;;;;;;;;;;;;;;5014061;28;19905;-70
2023/09/09 09:26:50;;;;;;;;;;;;;;;;;;5014258;28;19921;-70
2023/09/09 09:29:16;;;;;;;;;;;;;;;;;;5014159;28;19915;-70
2023/09/09 09:31:42;;;;;;;;;;;;;;;;;;5014281;28;20001;-71
2023/09/09 09:34:08;;;;;;;;;;;;;;;;;;5015280;28;19905;-70
2023/09/09 09:36:34;;;;;;;;;;;;;;;;;;5014434;28;19956;-70
2023/09/09 09:39:00;;;;;;;;;;;;;;;;;;5013972;28;19905;-68
2023/09/09 09:41:26;;;;;;;;;;;;;;;;;;5012665;28;19910;-70
2023/09/09 09:43:52;;;;;;;;;;;;;;;;;;5014110;28;20004;-70
2023/09/09 09:46:18;;;;;;;;;;;;;;;;;;5013615;28;20403;-70
2023/09/09 09:48:44;;;;;;;;;;;;;;;;;;5013759;28;19937;-70
2023/09/09 09:51:10;;;;;;;;;;;;;;;;;;5013830;28;19948;-70
2023/09/09 09:53:36;;;;;;;;;;;;;;;;;;5012400;28;20419;-71
2023/09/09 09:56:02;;;;;;;;;;;;;;;;;;5015458;28;19905;-71
2023/09/09 09:58:28;;;;;;;;;;;;;;;;;;5021853;28;20380;-69
2023/09/09 10:00:54;;;;;;;;;;;;;;;;;;5013714;28;19905;-69
2023/09/09 10:03:20;;;;;;;;;;;;;;;;;;5021823;28;19956;-71
2023/09/09 10:05:47;;;;;;;;;;;;;;;;;;5013767;28;19951;-70
2023/09/09 10:08:13;;;;;;;;;;;;;;;;;;5014807;28;19909;-71
2023/09/09 10:10:39;;;;;;;;;;;;;;;;;;5012105;28;19909;-71
2023/09/09 10:13:04;;;;;;;;;;;;;;;;;;5013237;28;19905;-71
2023/09/09 10:15:30;;;;;;;;;;;;;;;;;;5013627;28;19909;-70
2023/09/09 10:17:56;;;;;;;;;;;;;;;;;;5014346;28;19912;-70
2023/09/09 10:20:22;;;;;;;;;;;;;;;;;;5012519;28;20343;-70
2023/09/09 10:22:49;;;;;;;;;;;;;;;;;;5013295;28;19948;-70
2023/09/09 10:25:15;;;;;;;;;;;;;;;;;;5013201;28;19905;-71
2023/09/09 10:27:40;;;;;;;;;;;;;;;;;;5013467;28;20024;-71
2023/09/09 10:30:06;;;;;;;;;;;;;;;;;;5014677;28;19905;-70
2023/09/09 10:32:33;;;;;;;;;;;;;;;;;;5013269;28;20000;-71
2023/09/09 10:34:59;;;;;;;;;;;;;;;;;;5012060;28;19972;-71
2023/09/09 10:37:25;;;;;;;;;;;;;;;;;;5019639;28;19909;-70
2023/09/09 10:39:51;;;;;;;;;;;;;;;;;;5020210;28;20407;-70
2023/09/09 10:42:17;;;;;;;;;;;;;;;;;;5027361;28;20287;-71
2023/09/09 10:44:43;;;;;;;;;;;;;;;;;;5019777;28;19917;-69
2023/09/09 10:47:09;;;;;;;;;;;;;;;;;;5019091;28;20264;-69
2023/09/09 10:49:34;;;;;;;;;;;;;;;;;;5019935;28;20296;-70
2023/09/09 10:52:00;;;;;;;;;;;;;;;;;;5021020;28;19906;-69
2023/09/09 10:54:26;;;;;;;;;;;;;;;;;;5019130;28;19917;-72
2023/09/09 10:56:52;;;;;;;;;;;;;;;;;;5019931;28;19912;-69
2023/09/09 10:59:18;;;;;;;;;;;;;;;;;;5020588;28;20004;-69
2023/09/09 11:01:44;;;;;;;;;;;;;;;;;;5024202;28;20380;-70
2023/09/09 11:04:10;;;;;;;;;;;;;;;;;;5028086;28;20364;-72
2023/09/09 11:06:36;;;;;;;;;;;;;;;;;;5025862;28;19987;-72
2023/09/09 11:09:02;;;;;;;;;;;;;;;;;;5024382;28;19914;-69
2023/09/09 11:11:28;;;;;;;;;;;;;;;;;;5021391;28;19906;-70
2023/09/09 11:13:54;;;;;;;;;;;;;;;;;;5021893;28;19905;-69
2023/09/09 11:16:20;;;;;;;;;;;;;;;;;;5021994;28;20000;-70
2023/09/09 11:18:46;;;;;;;;;;;;;;;;;;5018808;28;19914;-68
2023/09/09 11:21:12;;;;;;;;;;;;;;;;;;5020192;28;20372;-70
2023/09/09 11:23:37;;;;;;;;;;;;;;;;;;5018322;28;19905;-70
2023/09/09 11:26:04;;;;;;;;;;;;;;;;;;5021086;28;19905;-69
2023/09/09 11:28:29;;;;;;;;;;;;;;;;;;5019409;28;19910;-69
2023/09/09 11:30:55;;;;;;;;;;;;;;;;;;5019398;28;19909;-69
2023/09/09 11:33:21;;;;;;;;;;;;;;;;;;5020274;28;20551;-69
2023/09/09 11:35:47;;;;;;;;;;;;;;;;;;5022660;28;19959;-69
2023/09/09 11:38:13;;;;;;;;;;;;;;;;;;5019443;28;20039;-69
2023/09/09 11:40:39;;;;;;;;;;;;;;;;;;5019296;28;20281;-70
2023/09/09 11:43:06;;;;;;;;;;;;;;;;;;5020093;28;19905;-70
2023/09/09 11:45:32;;;;;;;;;;;;;;;;;;5015476;28;19905;-70
2023/09/09 11:47:58;;;;;;;;;;;;;;;;;;5018075;28;19909;-70
2023/09/09 11:50:24;;;;;;;;;;;;;;;;;;5027233;22;20024;-70
2023/09/09 11:52:49;;;;;;;;;;;;;;;;;;4993721;28;19906;-67
2023/09/09 11:55:15;;;;;;;;;;;;;;;;;;5011534;28;20043;-69
2023/09/09 11:57:41;;;;;;;;;;;;;;;;;;5014591;28;19951;-69
2023/09/09 12:00:08;;;;;;;;;;;;;;;;;;4998340;28;19912;-71
2023/09/09 12:02:34;;;;;;;;;;;;;;;;;;4993226;28;19916;-69
2023/09/09 12:05:01;;;;;;;;;;;;;;;;;;4993302;28;19906;-69
2023/09/09 12:07:27;;;;;;;;;;;;;;;;;;4993242;28;20071;-69
2023/09/09 12:09:53;;;;;;;;;;;;;;;;;;4993371;28;20399;-69
2023/09/09 12:12:19;;;;;;;;;;;;;;;;;;4993881;28;19906;-68
2023/09/09 12:14:45;;;;;;;;;;;;;;;;;;4994724;28;19905;-68
2023/09/09 12:17:10;;;;;;;;;;;;;;;;;;4994887;28;19913;-71
2023/09/09 12:19:36;;;;;;;;;;;;;;;;;;4994727;28;19917;-68
2023/09/09 12:22:02;;;;;;;;;;;;;;;;;;5009883;28;20381;-71
2023/09/09 12:24:29;;;;;;;;;;;;;;;;;;4994712;28;19941;-69
2023/09/09 12:26:54;;;;;;;;;;;;;;;;;;4994739;28;20392;-67
2023/09/09 12:29:20;;;;;;;;;;;;;;;;;;5009518;28;19909;-68
2023/09/09 12:31:46;;;;;;;;;;;;;;;;;;4994627;28;19917;-71
2023/09/09 12:34:12;;;;;;;;;;;;;;;;;;4994843;28;19925;-71
2023/09/09 12:36:38;;;;;;;;;;;;;;;;;;4994899;28;20662;-71
2023/09/09 12:39:05;;;;;;;;;;;;;;;;;;4994625;28;19952;-71
2023/09/09 12:41:31;;;;;;;;;;;;;;;;;;4994533;28;19906;-70
2023/09/09 12:43:57;;;;;;;;;;;;;;;;;;4994129;28;19932;-71
2023/09/09 12:46:22;;;;;;;;;;;;;;;;;;4994469;28;20365;-71
2023/09/09 12:48:49;;;;;;;;;;;;;;;;;;4993967;28;19922;-72
2023/09/09 12:51:14;;;;;;;;;;;;;;;;;;4994293;28;20538;-71
2023/09/09 12:53:40;;;;;;;;;;;;;;;;;;4985591;28;20201;-71
2023/09/09 12:56:06;;;;;;;;;;;;;;;;;;4972709;28;19924;-69
2023/09/09 12:58:32;;;;;;;;;;;;;;;;;;4974812;28;20258;-71
2023/09/09 13:00:58;;;;;;;;;;;;;;;;;;4977462;28;19927;-71
2023/09/09 13:03:24;;;;;;;;;;;;;;;;;;4985746;28;19996;-71
2023/09/09 13:05:50;;;;;;;;;;;;;;;;;;4968578;28;20485;-70
2023/09/09 13:08:16;;;;;;;;;;;;;;;;;;4973102;28;19910;-70
2023/09/09 13:10:42;;;;;;;;;;;;;;;;;;4976877;28;19906;-71
2023/09/09 13:13:08;;;;;;;;;;;;;;;;;;4975877;28;19943;-71
2023/09/09 13:15:34;;;;;;;;;;;;;;;;;;4985785;28;19909;-70
2023/09/09 13:18:00;;;;;;;;;;;;;;;;;;4992149;28;20368;-70
2023/09/09 13:20:26;;;;;;;;;;;;;;;;;;4992561;28;20368;-69
2023/09/09 13:22:52;;;;;;;;;;;;;;;;;;4982955;28;19910;-71
2023/09/09 13:25:18;;;;;;;;;;;;;;;;;;4974164;28;19952;-70
2023/09/09 13:27:44;;;;;;;;;;;;;;;;;;4974016;28;19913;-70
2023/09/09 13:30:10;;;;;;;;;;;;;;;;;;4974064;28;19906;-71
2023/09/09 13:32:36;;;;;;;;;;;;;;;;;;4974865;28;19906;-71
2023/09/09 13:35:02;;;;;;;;;;;;;;;;;;4973007;28;20001;-71
2023/09/09 13:37:28;;;;;;;;;;;;;;;;;;4973535;28;19913;-70
2023/09/09 13:39:54;;;;;;;;;;;;;;;;;;4973838;28;19906;-71
2023/09/09 13:42:20;;;;;;;;;;;;;;;;;;4972650;28;19996;-70
2023/09/09 13:44:46;;;;;;;;;;;;;;;;;;4973599;28;19960;-71
2023/09/09 13:47:12;;;;;;;;;;;;;;;;;;4974037;28;19992;-70
2023/09/09 13:49:38;;;;;;;;;;;;;;;;;;4973589;28;19956;-70
2023/09/09 13:52:04;;;;;;;;;;;;;;;;;;4973744;28;19906;-71
2023/09/09 13:54:30;;;;;;;;;;;;;;;;;;4974146;28;20408;-71
2023/09/09 13:56:57;;;;;;;;;;;;;;;;;;4985686;28;19905;-71
2023/09/09 13:59:23;;;;;;;;;;;;;;;;;;4977370;28;20416;-70
2023/09/09 14:01:49;;;;;;;;;;;;;;;;;;4989504;28;19913;-70
2023/09/09 14:04:15;;;;;;;;;;;;;;;;;;4979853;28;20048;-69
2023/09/09 14:06:42;;;;;;;;;;;;;;;;;;4983350;28;19945;-72
2023/09/09 14:09:08;;;;;;;;;;;;;;;;;;4987619;28;19917;-72
2023/09/09 14:11:34;;;;;;;;;;;;;;;;;;4982307;28;19917;-70
2023/09/09 14:14:00;;;;;;;;;;;;;;;;;;4999034;28;19906;-69
2023/09/09 14:16:26;;;;;;;;;;;;;;;;;;4981667;28;20332;-69
2023/09/09 14:18:51;;;;;;;;;;;;;;;;;;4982485;28;19913;-69
2023/09/09 14:21:19;;;;;;;;;;;;;;;;;;4978111;28;19909;-70
2023/09/09 14:23:44;;;;;;;;;;;;;;;;;;4983834;28;19906;-69
2023/09/09 14:26:10;;;;;;;;;;;;;;;;;;5000944;28;20373;-71
2023/09/09 14:28:36;;;;;;;;;;;;;;;;;;4997167;28;19910;-70
2023/09/09 14:31:02;;;;;;;;;;;;;;;;;;4998226;28;19905;-70
2023/09/09 14:33:28;;;;;;;;;;;;;;;;;;4994844;28;19906;-70
2023/09/09 14:35:54;;;;;;;;;;;;;;;;;;4983703;28;19909;-69
2023/09/09 14:38:20;;;;;;;;;;;;;;;;;;4984328;28;19913;-69
2023/09/09 14:40:46;;;;;;;;;;;;;;;;;;4992597;28;19906;-70
2023/09/09 14:43:12;;;;;;;;;;;;;;;;;;4992727;28;19901;-69
2023/09/09 14:45:38;;;;;;;;;;;;;;;;;;4992281;28;19906;-69
2023/09/09 14:48:04;;;;;;;;;;;;;;;;;;4992441;28;19913;-70
2023/09/09 14:50:30;;;;;;;;;;;;;;;;;;4992396;28;19920;-70
2023/09/09 14:52:56;;;;;;;;;;;;;;;;;;4992268;28;20351;-70
2023/09/09 14:55:22;;;;;;;;;;;;;;;;;;4999578;28;19913;-70
2023/09/09 14:57:48;;;;;;;;;;;;;;;;;;4985389;28;20310;-70
2023/09/09 15:00:14;;;;;;;;;;;;;;;;;;4991004;28;19917;-70
2023/09/09 15:02:40;;;;;;;;;;;;;;;;;;4997319;28;19929;-71
2023/09/09 15:05:10;;;;;;;;;;;;;;;;;;4989363;28;20357;-71
2023/09/09 15:07:36;;;;;;;;;;;;;;;;;;5001524;28;19994;-72
2023/09/09 15:10:02;;;;;;;;;;;;;;;;;;4980539;28;20393;-72
2023/09/09 15:12:27;;;;;;;;;;;;;;;;;;4989437;28;19945;-72
2023/09/09 15:14:53;;;;;;;;;;;;;;;;;;4991659;28;19991;-71
2023/09/09 15:17:19;;;;;;;;;;;;;;;;;;4989094;28;19905;-71
2023/09/09 15:19:45;;;;;;;;;;;;;;;;;;4976949;28;20373;-72
2023/09/09 15:22:12;;;;;;;;;;;;;;;;;;4993120;28;19944;-72
2023/09/09 15:24:37;;;;;;;;;;;;;;;;;;4994361;28;20372;-70
2023/09/09 15:27:03;;;;;;;;;;;;;;;;;;4991655;28;19905;-70
2023/09/09 15:29:29;;;;;;;;;;;;;;;;;;4984480;28;19909;-71
2023/09/09 15:31:55;;;;;;;;;;;;;;;;;;4995245;28;19951;-72
2023/09/09 15:34:21;;;;;;;;;;;;;;;;;;4994913;28;19953;-70
2023/09/09 15:36:47;;;;;;;;;;;;;;;;;;4995338;28;19917;-70
2023/09/09 15:39:13;;;;;;;;;;;;;;;;;;4993889;28;20369;-70
2023/09/09 15:41:39;;;;;;;;;;;;;;;;;;4982031;28;19952;-70
2023/09/09 15:44:05;;;;;;;;;;;;;;;;;;4990867;28;20373;-71
2023/09/09 15:46:31;;;;;;;;;;;;;;;;;;4993220;28;19906;-71
2023/09/09 15:48:57;;;;;;;;;;;;;;;;;;4994819;28;19917;-70
2023/09/09 15:51:23;;;;;;;;;;;;;;;;;;4988398;28;19906;-72
2023/09/09 15:53:49;;;;;;;;;;;;;;;;;;4994683;28;19952;-71
2023/09/09 15:56:15;;;;;;;;;;;;;;;;;;4995260;28;20056;-72
2023/09/09 15:58:41;;;;;;;;;;;;;;;;;;4992673;28;20385;-72
2023/09/09 16:01:07;;;;;;;;;;;;;;;;;;4995180;28;19944;-72
2023/09/09 16:03:33;;;;;;;;;;;;;;;;;;4994553;28;19906;-72
2023/09/09 16:05:59;;;;;;;;;;;;;;;;;;4994774;28;19906;-72
2023/09/09 16:08:24;;;;;;;;;;;;;;;;;;4994444;28;20051;-72
2023/09/09 16:10:50;;;;;;;;;;;;;;;;;;4994965;28;19993;-71
2023/09/09 16:13:16;;;;;;;;;;;;;;;;;;4994295;28;19909;-72
2023/09/09 16:15:42;;;;;;;;;;;;;;;;;;4992600;28;19906;-72
2023/09/09 16:18:08;;;;;;;;;;;;;;;;;;4991910;28;19913;-72
2023/09/09 16:20:34;;;;;;;;;;;;;;;;;;4994568;28;20033;-72
2023/09/09 16:23:00;;;;;;;;;;;;;;;;;;4994454;28;19906;-72
2023/09/09 16:25:26;;;;;;;;;;;;;;;;;;4986775;28;19925;-72
2023/09/09 16:27:52;;;;;;;;;;;;;;;;;;4979303;28;19922;-72
2023/09/09 16:30:18;;;;;;;;;;;;;;;;;;4991393;28;19979;-71
2023/09/09 16:32:44;;;;;;;;;;;;;;;;;;4991649;28;19959;-72
2023/09/09 16:35:12;;;;;;;;;;;;;;;;;;4975150;28;19969;-71
2023/09/09 16:37:38;;;;;;;;;;;;;;;;;;4975444;28;20044;-71
2023/09/09 16:40:04;;;;;;;;;;;;;;;;;;4988738;28;20008;-70